sensor_id;sensor_type;location;lat;lon;timestamp;pressure;altitude;pressure_sealevel;temperature;humidity
41062;BME280;26812;42.662;23.352;2023-05-18T00:01:37;94379.44;;;13.73;91.84
41062;BME280;26812;42.662;23.352;2023-05-18T00:04:05;94402.44;;;13.79;92.45
41062;BME280;26812;42.662;23.352;2023-05-18T00:06:32;94389.84;;;13.71;92.71
41062;BME280;26812;42.662;23.352;2023-05-18T00:08:57;94399.28;;;13.77;91.04
41062;BME280;26812;42.662;23.352;2023-05-18T00:11:23;94405.50;;;13.93;89.67
41062;BME280;26812;42.662;23.352;2023-05-18T00:13:48;94403.91;;;13.60;89.99
41062;BME280;26812;42.662;23.352;2023-05-18T00:16:20;94401.63;;;13.62;91.24
41062;BME280;26812;42.662;23.352;2023-05-18T00:18:46;94405.03;;;13.75;91.12
41062;BME280;26812;42.662;23.352;2023-05-18T00:21:11;94366.88;;;13.64;88.95
41062;BME280;26812;42.662;23.352;2023-05-18T00:23:37;94387.94;;;13.71;88.26
41062;BME280;26812;42.662;23.352;2023-05-18T00:26:03;94373.09;;;13.49;89.57
41062;BME280;26812;42.662;23.352;2023-05-18T00:28:35;94413.25;;;13.63;90.25
41062;BME280;26812;42.662;23.352;2023-05-18T00:31:01;94410.09;;;13.77;88.17
41062;BME280;26812;42.662;23.352;2023-05-18T00:33:26;94404.00;;;13.64;88.49
41062;BME280;26812;42.662;23.352;2023-05-18T00:35:51;94397.81;;;13.20;91.08
41062;BME280;26812;42.662;23.352;2023-05-18T00:38:17;94389.91;;;13.43;90.01
41062;BME280;26812;42.662;23.352;2023-05-18T00:40:42;94415.78;;;13.56;89.19
41062;BME280;26812;42.662;23.352;2023-05-18T00:43:08;94408.41;;;13.41;90.59
41062;BME280;26812;42.662;23.352;2023-05-18T00:45:34;94404.47;;;13.38;90.30
41062;BME280;26812;42.662;23.352;2023-05-18T00:48:00;94408.91;;;13.30;90.10
41062;BME280;26812;42.662;23.352;2023-05-18T00:50:26;94404.44;;;13.22;90.47
41062;BME280;26812;42.662;23.352;2023-05-18T00:52:51;94376.09;;;13.04;91.22
41062;BME280;26812;42.662;23.352;2023-05-18T00:55:17;94384.47;;;13.15;91.29
41062;BME280;26812;42.662;23.352;2023-05-18T00:57:44;94401.06;;;13.25;91.17
41062;BME280;26812;42.662;23.352;2023-05-18T01:00:12;94394.09;;;13.40;89.70
41062;BME280;26812;42.662;23.352;2023-05-18T01:02:42;94382.38;;;13.20;89.48
41062;BME280;26812;42.662;23.352;2023-05-18T01:05:09;94380.19;;;13.26;89.49
41062;BME280;26812;42.662;23.352;2023-05-18T01:07:40;94405.50;;;13.05;91.04
41062;BME280;26812;42.662;23.352;2023-05-18T01:10:12;94385.16;;;13.24;91.32
41062;BME280;26812;42.662;23.352;2023-05-18T01:12:49;94404.56;;;13.42;89.95
41062;BME280;26812;42.662;23.352;2023-05-18T01:15:18;94397.59;;;13.41;90.42
41062;BME280;26812;42.662;23.352;2023-05-18T01:20:31;94395.13;;;13.35;90.74
41062;BME280;26812;42.662;23.352;2023-05-18T01:23:24;94403.38;;;12.99;92.70
41062;BME280;26812;42.662;23.352;2023-05-18T01:28:22;94399.72;;;13.19;92.83
41062;BME280;26812;42.662;23.352;2023-05-18T01:30:51;94398.53;;;13.32;92.04
41062;BME280;26812;42.662;23.352;2023-05-18T01:33:17;94411.19;;;13.44;90.94
41062;BME280;26812;42.662;23.352;2023-05-18T01:35:42;94390.59;;;13.40;91.00
41062;BME280;26812;42.662;23.352;2023-05-18T01:38:16;94408.75;;;13.39;90.75
41062;BME280;26812;42.662;23.352;2023-05-18T01:40:51;94411.47;;;13.39;91.02
41062;BME280;26812;42.662;23.352;2023-05-18T01:43:22;94389.84;;;13.55;89.99
41062;BME280;26812;42.662;23.352;2023-05-18T01:45:55;94380.47;;;13.36;89.78
41062;BME280;26812;42.662;23.352;2023-05-18T01:48:24;94386.03;;;13.28;90.87
41062;BME280;26812;42.662;23.352;2023-05-18T01:50:54;94383.94;;;13.21;92.16
41062;BME280;26812;42.662;23.352;2023-05-18T01:53:32;94379.53;;;13.17;92.99
41062;BME280;26812;42.662;23.352;2023-05-18T01:56:05;94413.78;;;13.13;93.33
41062;BME280;26812;42.662;23.352;2023-05-18T01:58:33;94408.88;;;13.02;94.39
41062;BME280;26812;42.662;23.352;2023-05-18T02:00:59;94412.03;;;13.04;95.10
41062;BME280;26812;42.662;23.352;2023-05-18T02:03:25;94403.06;;;13.28;94.40
41062;BME280;26812;42.662;23.352;2023-05-18T02:05:50;94419.00;;;13.61;91.32
41062;BME280;26812;42.662;23.352;2023-05-18T02:08:15;94412.13;;;13.64;90.44
41062;BME280;26812;42.662;23.352;2023-05-18T02:10:41;94395.22;;;13.23;91.22
41062;BME280;26812;42.662;23.352;2023-05-18T02:13:07;94412.84;;;13.33;92.43
41062;BME280;26812;42.662;23.352;2023-05-18T02:15:32;94415.47;;;13.29;93.10
41062;BME280;26812;42.662;23.352;2023-05-18T02:17:58;94416.69;;;13.32;93.44
41062;BME280;26812;42.662;23.352;2023-05-18T02:20:23;94406.13;;;13.43;92.34
41062;BME280;26812;42.662;23.352;2023-05-18T02:22:51;94416.75;;;13.63;90.75
41062;BME280;26812;42.662;23.352;2023-05-18T02:25:16;94397.19;;;13.54;90.05
41062;BME280;26812;42.662;23.352;2023-05-18T02:27:43;94413.50;;;13.74;89.59
41062;BME280;26812;42.662;23.352;2023-05-18T02:30:08;94399.97;;;13.58;89.50
41062;BME280;26812;42.662;23.352;2023-05-18T02:32:35;94415.38;;;13.42;91.12
41062;BME280;26812;42.662;23.352;2023-05-18T02:35:06;94417.97;;;13.22;92.99
41062;BME280;26812;42.662;23.352;2023-05-18T02:37:32;94421.06;;;13.36;93.39
41062;BME280;26812;42.662;23.352;2023-05-18T02:40:12;94413.63;;;13.33;93.10
41062;BME280;26812;42.662;23.352;2023-05-18T02:42:37;94411.09;;;13.41;91.84
41062;BME280;26812;42.662;23.352;2023-05-18T02:45:03;94399.84;;;13.39;90.78
41062;BME280;26812;42.662;23.352;2023-05-18T02:47:29;94421.94;;;13.41;91.50
41062;BME280;26812;42.662;23.352;2023-05-18T02:49:54;94429.25;;;13.40;92.76
41062;BME280;26812;42.662;23.352;2023-05-18T02:52:20;94399.44;;;13.52;91.03
41062;BME280;26812;42.662;23.352;2023-05-18T02:54:45;94420.50;;;13.59;89.99
41062;BME280;26812;42.662;23.352;2023-05-18T02:57:11;94422.31;;;13.55;90.77
41062;BME280;26812;42.662;23.352;2023-05-18T02:59:38;94438.75;;;13.62;90.32
41062;BME280;26812;42.662;23.352;2023-05-18T03:02:04;94436.91;;;13.66;88.92
41062;BME280;26812;42.662;23.352;2023-05-18T03:04:29;94441.53;;;13.65;89.13
41062;BME280;26812;42.662;23.352;2023-05-18T03:06:56;94445.53;;;13.56;89.13
41062;BME280;26812;42.662;23.352;2023-05-18T03:09:22;94467.91;;;13.53;90.36
41062;BME280;26812;42.662;23.352;2023-05-18T03:11:48;94452.63;;;13.32;91.35
41062;BME280;26812;42.662;23.352;2023-05-18T03:14:14;94457.78;;;13.38;92.63
41062;BME280;26812;42.662;23.352;2023-05-18T03:16:40;94463.00;;;13.58;90.58
41062;BME280;26812;42.662;23.352;2023-05-18T03:19:05;94459.25;;;13.63;90.32
41062;BME280;26812;42.662;23.352;2023-05-18T03:21:31;94475.00;;;13.73;89.24
41062;BME280;26812;42.662;23.352;2023-05-18T03:24:00;94469.31;;;13.62;89.25
41062;BME280;26812;42.662;23.352;2023-05-18T03:26:27;94477.19;;;13.40;90.58
41062;BME280;26812;42.662;23.352;2023-05-18T03:28:55;94492.16;;;13.21;92.44
41062;BME280;26812;42.662;23.352;2023-05-18T03:31:20;94482.22;;;13.25;93.70
41062;BME280;26812;42.662;23.352;2023-05-18T03:33:46;94485.34;;;13.27;93.78
41062;BME280;26812;42.662;23.352;2023-05-18T03:36:11;94457.53;;;13.43;92.93
41062;BME280;26812;42.662;23.352;2023-05-18T03:38:37;94484.25;;;13.72;90.61
41062;BME280;26812;42.662;23.352;2023-05-18T03:41:02;94489.88;;;13.79;89.93
41062;BME280;26812;42.662;23.352;2023-05-18T03:43:28;94467.38;;;13.47;90.38
41062;BME280;26812;42.662;23.352;2023-05-18T03:45:56;94486.16;;;13.72;90.43
41062;BME280;26812;42.662;23.352;2023-05-18T03:48:23;94471.72;;;13.52;90.28
41062;BME280;26812;42.662;23.352;2023-05-18T03:50:48;94496.09;;;13.52;90.77
41062;BME280;26812;42.662;23.352;2023-05-18T03:53:14;94481.91;;;13.43;91.92
41062;BME280;26812;42.662;23.352;2023-05-18T03:55:43;94498.78;;;13.52;90.85
41062;BME280;26812;42.662;23.352;2023-05-18T03:58:09;94475.41;;;13.31;91.91
41062;BME280;26812;42.662;23.352;2023-05-18T04:00:34;94489.66;;;13.44;91.71
41062;BME280;26812;42.662;23.352;2023-05-18T04:02:59;94478.38;;;13.26;91.76
41062;BME280;26812;42.662;23.352;2023-05-18T04:05:27;94496.97;;;13.28;92.82
41062;BME280;26812;42.662;23.352;2023-05-18T04:07:53;94513.97;;;13.16;93.72
41062;BME280;26812;42.662;23.352;2023-05-18T04:10:21;94510.53;;;13.44;93.39
41062;BME280;26812;42.662;23.352;2023-05-18T04:12:47;94492.19;;;13.37;93.14
41062;BME280;26812;42.662;23.352;2023-05-18T04:15:12;94517.59;;;13.60;92.15
41062;BME280;26812;42.662;23.352;2023-05-18T04:17:41;94514.63;;;13.38;93.24
41062;BME280;26812;42.662;23.352;2023-05-18T04:20:12;94521.88;;;13.61;92.95
41062;BME280;26812;42.662;23.352;2023-05-18T04:22:43;94516.81;;;13.76;91.59
41062;BME280;26812;42.662;23.352;2023-05-18T04:25:11;94525.34;;;13.62;91.82
41062;BME280;26812;42.662;23.352;2023-05-18T04:27:38;94476.19;;;13.60;90.03
41062;BME280;26812;42.662;23.352;2023-05-18T04:30:03;94514.72;;;13.69;89.95
41062;BME280;26812;42.662;23.352;2023-05-18T04:32:29;94504.34;;;13.43;91.75
41062;BME280;26812;42.662;23.352;2023-05-18T04:35:01;94515.56;;;13.29;93.32
41062;BME280;26812;42.662;23.352;2023-05-18T04:37:26;94501.59;;;13.27;93.66
41062;BME280;26812;42.662;23.352;2023-05-18T04:39:52;94498.97;;;13.59;92.26
41062;BME280;26812;42.662;23.352;2023-05-18T04:42:18;94522.91;;;13.57;92.58
41062;BME280;26812;42.662;23.352;2023-05-18T04:44:43;94489.56;;;13.41;92.71
41062;BME280;26812;42.662;23.352;2023-05-18T04:47:09;94522.38;;;13.95;89.95
41062;BME280;26812;42.662;23.352;2023-05-18T04:49:34;94510.22;;;13.89;89.21
41062;BME280;26812;42.662;23.352;2023-05-18T04:52:00;94517.72;;;13.80;90.03
41062;BME280;26812;42.662;23.352;2023-05-18T04:54:27;94513.16;;;13.68;91.07
41062;BME280;26812;42.662;23.352;2023-05-18T04:56:55;94540.81;;;13.89;91.51
41062;BME280;26812;42.662;23.352;2023-05-18T04:59:21;94545.56;;;14.08;89.87
41062;BME280;26812;42.662;23.352;2023-05-18T05:01:51;94546.31;;;13.93;89.87
41062;BME280;26812;42.662;23.352;2023-05-18T05:04:17;94557.41;;;13.88;90.40
41062;BME280;26812;42.662;23.352;2023-05-18T05:06:42;94541.34;;;13.67;91.87
41062;BME280;26812;42.662;23.352;2023-05-18T05:09:08;94544.94;;;13.71;90.77
41062;BME280;26812;42.662;23.352;2023-05-18T05:11:33;94567.28;;;13.68;91.34
41062;BME280;26812;42.662;23.352;2023-05-18T05:14:00;94562.72;;;13.84;92.26
41062;BME280;26812;42.662;23.352;2023-05-18T05:16:26;94543.47;;;13.74;92.13
41062;BME280;26812;42.662;23.352;2023-05-18T05:18:52;94571.53;;;14.09;90.71
41062;BME280;26812;42.662;23.352;2023-05-18T05:21:17;94562.03;;;14.03;89.78
41062;BME280;26812;42.662;23.352;2023-05-18T05:23:43;94556.84;;;14.10;88.22
41062;BME280;26812;42.662;23.352;2023-05-18T05:26:09;94568.66;;;14.18;88.60
41062;BME280;26812;42.662;23.352;2023-05-18T05:28:35;94573.44;;;14.09;88.60
41062;BME280;26812;42.662;23.352;2023-05-18T05:31:01;94572.78;;;13.99;88.73
41062;BME280;26812;42.662;23.352;2023-05-18T05:33:26;94550.00;;;13.73;89.98
41062;BME280;26812;42.662;23.352;2023-05-18T05:35:52;94576.25;;;13.44;91.30
41062;BME280;26812;42.662;23.352;2023-05-18T05:38:17;94571.69;;;13.32;94.12
41062;BME280;26812;42.662;23.352;2023-05-18T05:40:42;94584.63;;;13.79;92.82
41062;BME280;26812;42.662;23.352;2023-05-18T05:43:08;94581.06;;;13.63;91.20
41062;BME280;26812;42.662;23.352;2023-05-18T05:45:33;94565.41;;;13.56;91.73
41062;BME280;26812;42.662;23.352;2023-05-18T05:47:59;94592.44;;;13.96;90.50
41062;BME280;26812;42.662;23.352;2023-05-18T05:50:25;94575.06;;;13.97;89.30
41062;BME280;26812;42.662;23.352;2023-05-18T05:52:51;94576.97;;;13.97;88.61
41062;BME280;26812;42.662;23.352;2023-05-18T05:55:17;94585.09;;;13.97;89.53
41062;BME280;26812;42.662;23.352;2023-05-18T05:57:42;94591.47;;;13.89;90.69
41062;BME280;26812;42.662;23.352;2023-05-18T06:00:09;94596.69;;;13.82;90.48
41062;BME280;26812;42.662;23.352;2023-05-18T06:02:36;94600.22;;;13.70;91.76
41062;BME280;26812;42.662;23.352;2023-05-18T06:05:02;94599.88;;;13.72;92.62
41062;BME280;26812;42.662;23.352;2023-05-18T06:07:27;94597.25;;;14.03;91.01
41062;BME280;26812;42.662;23.352;2023-05-18T06:09:54;94593.63;;;14.11;89.34
41062;BME280;26812;42.662;23.352;2023-05-18T06:12:19;94593.13;;;13.93;88.63
41062;BME280;26812;42.662;23.352;2023-05-18T06:14:45;94610.44;;;13.77;91.00
41062;BME280;26812;42.662;23.352;2023-05-18T06:17:11;94609.75;;;14.08;90.44
41062;BME280;26812;42.662;23.352;2023-05-18T06:19:36;94583.53;;;13.96;88.94
41062;BME280;26812;42.662;23.352;2023-05-18T06:22:02;94613.31;;;13.96;89.58
41062;BME280;26812;42.662;23.352;2023-05-18T06:24:27;94616.31;;;14.07;90.42
41062;BME280;26812;42.662;23.352;2023-05-18T06:26:53;94607.53;;;13.82;90.28
41062;BME280;26812;42.662;23.352;2023-05-18T06:29:18;94596.25;;;13.80;91.74
41062;BME280;26812;42.662;23.352;2023-05-18T06:31:45;94599.13;;;14.15;89.13
41062;BME280;26812;42.662;23.352;2023-05-18T06:34:10;94616.19;;;14.15;88.89
41062;BME280;26812;42.662;23.352;2023-05-18T06:36:36;94614.75;;;14.06;90.30
41062;BME280;26812;42.662;23.352;2023-05-18T06:39:03;94624.50;;;14.22;90.58
41062;BME280;26812;42.662;23.352;2023-05-18T06:41:29;94615.38;;;14.43;88.33
41062;BME280;26812;42.662;23.352;2023-05-18T06:43:55;94615.03;;;14.16;89.37
41062;BME280;26812;42.662;23.352;2023-05-18T06:46:21;94612.22;;;14.41;88.61
41062;BME280;26812;42.662;23.352;2023-05-18T06:48:47;94641.19;;;14.52;87.26
41062;BME280;26812;42.662;23.352;2023-05-18T06:51:13;94631.19;;;14.41;88.09
41062;BME280;26812;42.662;23.352;2023-05-18T06:53:40;94627.91;;;14.19;90.11
41062;BME280;26812;42.662;23.352;2023-05-18T06:56:06;94600.47;;;14.21;90.23
41062;BME280;26812;42.662;23.352;2023-05-18T06:58:34;94633.16;;;14.56;90.48
41062;BME280;26812;42.662;23.352;2023-05-18T07:01:00;94640.25;;;14.76;89.43
41062;BME280;26812;42.662;23.352;2023-05-18T07:03:26;94656.69;;;14.99;87.91
41062;BME280;26812;42.662;23.352;2023-05-18T07:05:52;94662.56;;;14.85;88.01
41062;BME280;26812;42.662;23.352;2023-05-18T07:08:18;94652.50;;;15.02;86.47
41062;BME280;26812;42.662;23.352;2023-05-18T07:10:44;94659.84;;;14.85;85.11
41062;BME280;26812;42.662;23.352;2023-05-18T07:13:09;94655.47;;;14.97;84.79
41062;BME280;26812;42.662;23.352;2023-05-18T07:15:35;94663.25;;;14.82;84.91
41062;BME280;26812;42.662;23.352;2023-05-18T07:18:00;94657.38;;;14.49;87.19
41062;BME280;26812;42.662;23.352;2023-05-18T07:20:26;94658.78;;;14.58;88.20
41062;BME280;26812;42.662;23.352;2023-05-18T07:22:51;94666.19;;;14.62;86.65
41062;BME280;26812;42.662;23.352;2023-05-18T07:25:19;94673.63;;;14.49;88.40
41062;BME280;26812;42.662;23.352;2023-05-18T07:27:45;94668.47;;;14.59;87.55
41062;BME280;26812;42.662;23.352;2023-05-18T07:30:10;94689.38;;;14.59;87.94
41062;BME280;26812;42.662;23.352;2023-05-18T07:32:36;94683.50;;;14.57;84.54
41062;BME280;26812;42.662;23.352;2023-05-18T07:35:01;94691.31;;;14.58;83.30
41062;BME280;26812;42.662;23.352;2023-05-18T07:37:27;94691.44;;;14.22;84.80
41062;BME280;26812;42.662;23.352;2023-05-18T07:39:52;94688.91;;;14.01;85.16
41062;BME280;26812;42.662;23.352;2023-05-18T07:42:18;94694.22;;;13.97;84.09
41062;BME280;26812;42.662;23.352;2023-05-18T07:44:43;94691.63;;;14.01;83.78
41062;BME280;26812;42.662;23.352;2023-05-18T07:47:09;94686.09;;;13.97;84.07
41062;BME280;26812;42.662;23.352;2023-05-18T07:49:35;94688.38;;;13.95;83.69
41062;BME280;26812;42.662;23.352;2023-05-18T07:52:04;94694.50;;;14.20;82.87
41062;BME280;26812;42.662;23.352;2023-05-18T07:54:30;94714.63;;;14.07;83.88
41062;BME280;26812;42.662;23.352;2023-05-18T07:56:55;94677.78;;;13.90;83.74
41062;BME280;26812;42.662;23.352;2023-05-18T07:59:21;94714.81;;;13.86;85.42
41062;BME280;26812;42.662;23.352;2023-05-18T08:01:46;94724.88;;;14.14;83.69
41062;BME280;26812;42.662;23.352;2023-05-18T08:04:13;94720.56;;;13.85;84.47
41062;BME280;26812;42.662;23.352;2023-05-18T08:06:38;94715.25;;;13.88;83.76
41062;BME280;26812;42.662;23.352;2023-05-18T08:09:04;94716.63;;;13.82;84.81
41062;BME280;26812;42.662;23.352;2023-05-18T08:11:30;94736.63;;;14.06;84.30
41062;BME280;26812;42.662;23.352;2023-05-18T08:13:55;94732.88;;;13.82;84.20
41062;BME280;26812;42.662;23.352;2023-05-18T08:16:21;94745.19;;;14.08;82.84
41062;BME280;26812;42.662;23.352;2023-05-18T08:18:46;94743.00;;;13.85;83.73
41062;BME280;26812;42.662;23.352;2023-05-18T08:21:12;94749.66;;;13.88;82.71
41062;BME280;26812;42.662;23.352;2023-05-18T08:23:38;94753.50;;;13.75;81.23
41062;BME280;26812;42.662;23.352;2023-05-18T08:26:03;94745.78;;;14.01;80.68
41062;BME280;26812;42.662;23.352;2023-05-18T08:28:29;94751.56;;;13.75;81.98
41062;BME280;26812;42.662;23.352;2023-05-18T08:30:56;94757.22;;;13.70;84.31
41062;BME280;26812;42.662;23.352;2023-05-18T08:33:21;94756.34;;;13.66;82.70
41062;BME280;26812;42.662;23.352;2023-05-18T08:35:50;94755.00;;;13.60;82.13
41062;BME280;26812;42.662;23.352;2023-05-18T08:38:16;94762.53;;;13.79;82.96
41062;BME280;26812;42.662;23.352;2023-05-18T08:40:49;94773.47;;;13.82;80.44
41062;BME280;26812;42.662;23.352;2023-05-18T08:43:21;94772.88;;;14.01;81.11
41062;BME280;26812;42.662;23.352;2023-05-18T08:45:51;94740.53;;;13.44;81.14
41062;BME280;26812;42.662;23.352;2023-05-18T08:48:21;94766.50;;;13.81;80.19
41062;BME280;26812;42.662;23.352;2023-05-18T08:50:47;94771.00;;;13.65;82.94
41062;BME280;26812;42.662;23.352;2023-05-18T08:53:15;94788.81;;;13.66;81.38
41062;BME280;26812;42.662;23.352;2023-05-18T08:55:44;94797.06;;;13.57;76.67
41062;BME280;26812;42.662;23.352;2023-05-18T08:58:12;94797.50;;;13.72;77.47
41062;BME280;26812;42.662;23.352;2023-05-18T09:00:38;94756.59;;;13.49;75.33
41062;BME280;26812;42.662;23.352;2023-05-18T09:03:04;94789.47;;;13.75;74.81
41062;BME280;26812;42.662;23.352;2023-05-18T09:05:30;94797.50;;;13.72;74.55
41062;BME280;26812;42.662;23.352;2023-05-18T09:07:56;94806.84;;;13.74;76.10
41062;BME280;26812;42.662;23.352;2023-05-18T09:10:23;94803.72;;;13.84;75.51
41062;BME280;26812;42.662;23.352;2023-05-18T09:12:49;94788.97;;;14.22;72.58
41062;BME280;26812;42.662;23.352;2023-05-18T09:15:15;94811.13;;;14.12;74.01
41062;BME280;26812;42.662;23.352;2023-05-18T09:17:42;94809.56;;;14.11;75.63
41062;BME280;26812;42.662;23.352;2023-05-18T09:20:07;94775.81;;;13.96;73.07
41062;BME280;26812;42.662;23.352;2023-05-18T09:22:33;94799.88;;;13.85;72.85
41062;BME280;26812;42.662;23.352;2023-05-18T09:25:07;94816.13;;;13.85;73.81
41062;BME280;26812;42.662;23.352;2023-05-18T09:27:40;94815.31;;;13.97;75.52
41062;BME280;26812;42.662;23.352;2023-05-18T09:30:10;94805.06;;;13.78;74.76
41062;BME280;26812;42.662;23.352;2023-05-18T09:32:36;94805.63;;;13.84;75.97
41062;BME280;26812;42.662;23.352;2023-05-18T09:35:08;94822.88;;;13.91;77.71
41062;BME280;26812;42.662;23.352;2023-05-18T09:37:40;94808.66;;;13.94;76.85
41062;BME280;26812;42.662;23.352;2023-05-18T09:40:06;94808.69;;;13.58;74.44
41062;BME280;26812;42.662;23.352;2023-05-18T09:42:40;94821.31;;;13.66;75.27
41062;BME280;26812;42.662;23.352;2023-05-18T09:45:20;94820.72;;;13.73;75.82
41062;BME280;26812;42.662;23.352;2023-05-18T09:47:49;94808.56;;;13.54;76.54
41062;BME280;26812;42.662;23.352;2023-05-18T09:50:26;94812.50;;;13.57;77.79
41062;BME280;26812;42.662;23.352;2023-05-18T09:52:51;94819.25;;;13.75;79.44
41062;BME280;26812;42.662;23.352;2023-05-18T09:55:20;94827.28;;;13.84;77.74
41062;BME280;26812;42.662;23.352;2023-05-18T09:57:47;94823.13;;;13.86;78.20
41062;BME280;26812;42.662;23.352;2023-05-18T10:00:17;94832.25;;;13.70;80.99
41062;BME280;26812;42.662;23.352;2023-05-18T10:02:50;94826.94;;;13.73;82.56
41062;BME280;26812;42.662;23.352;2023-05-18T10:05:22;94821.66;;;13.89;81.55
41062;BME280;26812;42.662;23.352;2023-05-18T10:07:50;94844.97;;;14.30;78.91
41062;BME280;26812;42.662;23.352;2023-05-18T10:10:20;94845.88;;;14.46;76.01
41062;BME280;26812;42.662;23.352;2023-05-18T10:12:47;94851.19;;;14.43;73.17
41062;BME280;26812;42.662;23.352;2023-05-18T10:15:15;94841.91;;;14.32;74.30
41062;BME280;26812;42.662;23.352;2023-05-18T10:17:42;94857.41;;;14.07;74.83
41062;BME280;26812;42.662;23.352;2023-05-18T10:20:09;94842.63;;;14.04;76.87
41062;BME280;26812;42.662;23.352;2023-05-18T10:22:36;94824.69;;;13.99;77.22
41062;BME280;26812;42.662;23.352;2023-05-18T10:25:05;94824.75;;;14.27;76.32
41062;BME280;26812;42.662;23.352;2023-05-18T10:27:35;94845.84;;;14.58;70.34
41062;BME280;26812;42.662;23.352;2023-05-18T10:30:00;94848.94;;;14.45;72.26
41062;BME280;26812;42.662;23.352;2023-05-18T10:32:29;94852.16;;;14.38;74.22
41062;BME280;26812;42.662;23.352;2023-05-18T10:34:58;94857.81;;;14.33;74.80
41062;BME280;26812;42.662;23.352;2023-05-18T10:37:24;94828.06;;;14.09;73.74
41062;BME280;26812;42.662;23.352;2023-05-18T10:39:55;94861.25;;;14.18;73.58
41062;BME280;26812;42.662;23.352;2023-05-18T10:42:21;94870.16;;;14.43;74.29
41062;BME280;26812;42.662;23.352;2023-05-18T10:44:47;94821.28;;;14.03;70.58
41062;BME280;26812;42.662;23.352;2023-05-18T10:47:14;94849.94;;;14.40;71.33
41062;BME280;26812;42.662;23.352;2023-05-18T10:49:42;94845.06;;;14.34;70.63
41062;BME280;26812;42.662;23.352;2023-05-18T10:52:11;94852.94;;;14.39;69.27
41062;BME280;26812;42.662;23.352;2023-05-18T10:54:39;94831.53;;;14.21;69.27
41062;BME280;26812;42.662;23.352;2023-05-18T10:57:05;94832.13;;;14.15;70.22
41062;BME280;26812;42.662;23.352;2023-05-18T10:59:39;94857.97;;;14.12;72.71
41062;BME280;26812;42.662;23.352;2023-05-18T11:02:07;94886.75;;;14.41;73.42
41062;BME280;26812;42.662;23.352;2023-05-18T11:05:01;94873.97;;;14.42;72.59
41062;BME280;26812;42.662;23.352;2023-05-18T11:07:59;94893.25;;;14.65;69.13
41062;BME280;26812;42.662;23.352;2023-05-18T11:10:38;94899.06;;;14.26;71.63
41062;BME280;26812;42.662;23.352;2023-05-18T11:13:05;94897.47;;;14.25;72.80
41062;BME280;26812;42.662;23.352;2023-05-18T11:18:15;94869.44;;;14.58;71.95
41062;BME280;26812;42.662;23.352;2023-05-18T11:20:40;94881.91;;;14.22;74.52
41062;BME280;26812;42.662;23.352;2023-05-18T11:23:09;94897.16;;;14.15;76.30
41062;BME280;26812;42.662;23.352;2023-05-18T11:25:41;94893.75;;;14.30;77.54
41062;BME280;26812;42.662;23.352;2023-05-18T11:28:09;94909.44;;;13.88;77.88
41062;BME280;26812;42.662;23.352;2023-05-18T11:33:13;94918.81;;;13.90;76.78
41062;BME280;26812;42.662;23.352;2023-05-18T11:36:08;94916.53;;;13.80;77.82
41062;BME280;26812;42.662;23.352;2023-05-18T11:46:54;94916.38;;;12.78;83.70
41062;BME280;26812;42.662;23.352;2023-05-18T11:49:24;94924.59;;;12.39;85.84
41062;BME280;26812;42.662;23.352;2023-05-18T11:52:00;94906.25;;;12.24;87.66
41062;BME280;26812;42.662;23.352;2023-05-18T11:54:26;94918.28;;;12.77;85.89
41062;BME280;26812;42.662;23.352;2023-05-18T11:56:52;94913.00;;;12.81;85.50
41062;BME280;26812;42.662;23.352;2023-05-18T11:59:29;94919.69;;;13.25;83.03
41062;BME280;26812;42.662;23.352;2023-05-18T12:01:57;94918.63;;;12.96;82.86
41062;BME280;26812;42.662;23.352;2023-05-18T12:04:23;94903.06;;;12.93;83.54
41062;BME280;26812;42.662;23.352;2023-05-18T12:06:50;94892.13;;;12.90;81.46
41062;BME280;26812;42.662;23.352;2023-05-18T12:09:17;94930.06;;;13.14;79.61
41062;BME280;26812;42.662;23.352;2023-05-18T12:11:43;94916.38;;;13.19;80.22
41062;BME280;26812;42.662;23.352;2023-05-18T12:14:08;94921.63;;;13.36;79.21
41062;BME280;26812;42.662;23.352;2023-05-18T12:16:35;94909.22;;;13.35;78.92
41062;BME280;26812;42.662;23.352;2023-05-18T12:19:00;94927.78;;;13.70;77.69
41062;BME280;26812;42.662;23.352;2023-05-18T12:21:26;94920.66;;;13.53;77.46
41062;BME280;26812;42.662;23.352;2023-05-18T12:23:59;94928.00;;;13.20;78.23
41062;BME280;26812;42.662;23.352;2023-05-18T12:26:25;94917.84;;;13.50;77.65
41062;BME280;26812;42.662;23.352;2023-05-18T12:28:55;94936.25;;;13.68;74.57
41062;BME280;26812;42.662;23.352;2023-05-18T12:31:21;94925.75;;;13.55;76.33
41062;BME280;26812;42.662;23.352;2023-05-18T12:33:47;94917.53;;;13.76;75.92
41062;BME280;26812;42.662;23.352;2023-05-18T12:36:13;94930.53;;;14.07;76.43
41062;BME280;26812;42.662;23.352;2023-05-18T12:38:39;94933.13;;;13.91;74.77
41062;BME280;26812;42.662;23.352;2023-05-18T12:41:05;94926.94;;;14.03;75.54
41062;BME280;26812;42.662;23.352;2023-05-18T12:43:34;94924.22;;;14.27;75.29
41062;BME280;26812;42.662;23.352;2023-05-18T12:46:01;94930.00;;;14.13;74.09
41062;BME280;26812;42.662;23.352;2023-05-18T12:48:26;94927.28;;;14.13;75.75
41062;BME280;26812;42.662;23.352;2023-05-18T12:50:52;94931.13;;;14.12;76.02
41062;BME280;26812;42.662;23.352;2023-05-18T12:53:18;94937.00;;;14.14;76.50
41062;BME280;26812;42.662;23.352;2023-05-18T12:55:43;94931.47;;;14.23;76.53
41062;BME280;26812;42.662;23.352;2023-05-18T12:58:14;94938.00;;;14.34;76.39
41062;BME280;26812;42.662;23.352;2023-05-18T13:00:44;94934.41;;;14.42;72.56
41062;BME280;26812;42.662;23.352;2023-05-18T13:03:18;94929.75;;;14.30;73.90
41062;BME280;26812;42.662;23.352;2023-05-18T13:05:45;94948.38;;;14.08;73.25
41062;BME280;26812;42.662;23.352;2023-05-18T13:08:25;94933.97;;;13.58;75.20
41062;BME280;26812;42.662;23.352;2023-05-18T13:10:50;94917.88;;;13.29;78.33